Time;durP1;ratioP1;P1;durP2;ratioP2;P2;SDS_P1;SDS_P2;PMS_P1;PMS_P2;Temp;Humidity;BMP_temperature;BMP_pressure;BME280_temperature;BME280_humidity;BME280_pressure;Samples;Min_cycle;Max_cycle;Signal;HPM_P1;HPM_P2
2023/01/24 00:01:31;;;;;;;14.82;7.65;;;;;;;2.57;80.91;101563.13;5003482;28;20038;-83
2023/01/24 00:03:58;;;;;;;14.07;7.18;;;;;;;2.60;80.59;101556.94;5018172;28;20121;-83
2023/01/24 00:06:25;;;;;;;15.02;7.45;;;;;;;2.64;81.00;101569.06;5031235;28;20135;-84
2023/01/24 00:08:52;;;;;;;13.27;7.38;;;;;;;2.64;81.08;101573.44;5001197;28;20050;-83
2023/01/24 00:11:19;;;;;;;15.02;7.68;;;;;;;2.60;80.90;101568.28;5002457;28;20046;-83
2023/01/24 00:13:46;;;;;;;17.35;6.90;;;;;;;2.63;80.85;101567.34;4999967;28;20047;-84
2023/01/24 00:16:18;;;;;;;15.48;7.60;;;;;;;2.64;81.06;101571.69;5000024;28;20054;-84
2023/01/24 00:18:46;;;;;;;14.95;7.18;;;;;;;2.58;80.93;101569.22;5009991;28;20042;-83
2023/01/24 00:21:15;;;;;;;13.63;7.72;;;;;;;2.62;80.75;101570.88;5036981;28;20562;-84
2023/01/24 00:23:44;;;;;;;17.67;8.18;;;;;;;2.60;81.01;101559.56;4999017;28;20038;-84
2023/01/24 00:26:12;;;;;;;20.02;8.23;;;;;;;2.57;81.36;101557.00;4974537;28;20057;-84
2023/01/24 00:28:42;;;;;;;14.57;7.30;;;;;;;2.56;81.40;101558.78;5019371;28;20053;-83
2023/01/24 00:31:08;;;;;;;13.60;7.90;;;;;;;2.57;81.35;101557.00;5015306;28;20120;-84
2023/01/24 00:33:36;;;;;;;14.75;7.57;;;;;;;2.52;81.42;101556.28;5002145;28;20096;-84
2023/01/24 00:36:03;;;;;;;17.75;8.43;;;;;;;2.60;81.24;101556.94;4971154;28;20042;-83
2023/01/24 00:38:31;;;;;;;14.02;7.38;;;;;;;2.54;81.52;101559.72;4987100;28;20052;-84
2023/01/24 00:40:58;;;;;;;13.85;6.97;;;;;;;2.60;81.19;101555.19;4983761;28;20079;-84
2023/01/24 00:43:26;;;;;;;15.43;7.38;;;;;;;2.55;81.21;101567.56;5001174;28;20037;-84
2023/01/24 00:45:53;;;;;;;16.23;7.93;;;;;;;2.71;81.01;101556.63;4975376;28;20109;-84
2023/01/24 00:48:21;;;;;;;13.65;7.70;;;;;;;2.71;81.22;101567.13;5003025;28;20498;-83
2023/01/24 00:50:48;;;;;;;16.85;7.95;;;;;;;2.71;80.75;101567.13;5011234;28;20596;-84
2023/01/24 00:53:15;;;;;;;18.25;7.80;;;;;;;2.68;80.59;101572.47;5002466;28;20057;-84
2023/01/24 00:55:46;;;;;;;15.85;7.72;;;;;;;2.60;81.37;101572.69;5000561;28;20050;-83
2023/01/24 00:58:13;;;;;;;15.27;8.57;;;;;;;2.68;81.12;101575.09;5014083;28;20128;-83
2023/01/24 01:00:40;;;;;;;16.02;7.93;;;;;;;2.67;81.15;101578.59;5001731;28;20042;-84
2023/01/24 01:03:11;;;;;;;15.65;7.18;;;;;;;2.64;81.13;101576.91;5001619;28;20413;-83
2023/01/24 01:05:37;;;;;;;14.07;7.60;;;;;;;2.71;80.88;101583.72;4958248;28;20841;-84
2023/01/24 01:08:04;;;;;;;14.25;7.13;;;;;;;2.67;80.91;101602.22;4999405;28;20104;-84
2023/01/24 01:10:31;;;;;;;16.83;7.45;;;;;;;2.73;81.21;101594.19;4969009;28;20064;-84
2023/01/24 01:12:58;;;;;;;15.40;7.85;;;;;;;2.65;81.18;101593.53;5017518;28;20097;-83
2023/01/24 01:15:25;;;;;;;15.98;7.75;;;;;;;2.64;80.90;101597.06;5010697;28;20038;-84
2023/01/24 01:17:51;;;;;;;16.08;7.82;;;;;;;2.60;81.41;101593.66;5016417;28;20041;-84
2023/01/24 01:20:18;;;;;;;15.23;7.18;;;;;;;2.66;81.20;101606.59;4956535;28;20046;-83
2023/01/24 01:22:45;;;;;;;14.60;6.53;;;;;;;2.62;81.69;101599.72;5035965;28;20038;-84
2023/01/24 01:25:12;;;;;;;16.20;6.90;;;;;;;2.60;81.22;101597.13;4998225;28;20061;-84
2023/01/24 01:27:38;;;;;;;13.90;7.18;;;;;;;2.71;80.93;101590.75;4984568;28;20485;-84
2023/01/24 01:30:06;;;;;;;15.68;7.28;;;;;;;2.61;81.22;101605.88;4985431;28;20414;-83
2023/01/24 01:32:32;;;;;;;18.52;7.53;;;;;;;2.63;81.08;101595.34;4984817;28;20046;-83
2023/01/24 01:34:59;;;;;;;13.98;7.10;;;;;;;2.70;81.22;101591.66;4997592;28;20057;-84
2023/01/24 01:37:26;;;;;;;13.80;7.03;;;;;;;2.68;81.28;101586.44;4998570;28;20046;-84
2023/01/24 01:39:52;;;;;;;16.05;7.53;;;;;;;2.71;81.56;101588.13;5018114;28;20058;-83
2023/01/24 01:42:19;;;;;;;15.38;7.57;;;;;;;2.72;81.17;101581.94;5012986;28;20045;-83
2023/01/24 01:44:49;;;;;;;15.10;7.47;;;;;;;2.64;81.72;101591.81;5014230;28;20392;-83
2023/01/24 01:47:18;;;;;;;15.77;7.68;;;;;;;2.63;81.71;101597.97;4998229;28;20583;-83
2023/01/24 01:49:59;;;;;;;17.52;7.75;;;;;;;2.59;81.64;101595.41;4982432;28;20057;-84
2023/01/24 01:52:33;;;;;;;14.80;6.57;;;;;;;2.60;80.91;101588.41;4991871;28;20050;-84
2023/01/24 01:55:03;;;;;;;13.45;7.40;;;;;;;2.63;81.47;101600.59;4992826;28;20068;-83
2023/01/24 01:57:30;;;;;;;14.15;7.22;;;;;;;2.57;81.98;101596.34;4981151;28;20053;-83
2023/01/24 02:00:07;;;;;;;14.95;8.05;;;;;;;2.64;81.43;101604.91;5013171;28;20042;-84
2023/01/24 02:02:44;;;;;;;14.13;7.30;;;;;;;2.69;81.36;101603.03;4927479;28;20046;-83
2023/01/24 02:05:14;;;;;;;14.30;7.72;;;;;;;2.66;80.98;101606.59;4984315;28;20042;-83
2023/01/24 02:07:49;;;;;;;16.08;7.82;;;;;;;2.57;81.34;101615.59;5013975;28;20052;-84
2023/01/24 02:10:21;;;;;;;15.70;7.60;;;;;;;2.73;81.06;101613.41;4946656;28;20038;-83
2023/01/24 02:12:50;;;;;;;14.65;6.80;;;;;;;2.63;81.38;101619.81;4968547;28;20405;-84
2023/01/24 02:18:07;;;;;;;12.90;7.22;;;;;;;2.53;82.05;101627.03;4941972;28;20124;-83
2023/01/24 02:20:40;;;;;;;15.60;7.10;;;;;;;2.55;82.00;101625.25;4973757;28;20042;-83
2023/01/24 02:23:07;;;;;;;14.65;7.18;;;;;;;2.62;82.01;101625.97;4988741;28;20060;-84
2023/01/24 02:25:34;;;;;;;15.35;7.25;;;;;;;2.63;82.08;101632.91;5002037;28;20038;-84
2023/01/24 02:28:02;;;;;;;15.63;7.93;;;;;;;2.66;81.84;101630.19;5003382;28;20145;-84
2023/01/24 02:30:28;;;;;;;13.68;7.47;;;;;;;2.68;81.88;101636.28;4984034;28;20050;-83
2023/01/24 02:32:55;;;;;;;17.05;7.57;;;;;;;2.65;81.55;101631.13;4972256;28;20073;-83
2023/01/24 02:35:27;;;;;;;17.08;8.10;;;;;;;2.66;81.80;101634.59;4974577;28;20046;-83
2023/01/24 02:37:56;;;;;;;17.55;8.90;;;;;;;2.65;81.70;101636.38;4987505;28;20056;-84
2023/01/24 02:40:23;;;;;;;14.50;7.78;;;;;;;2.54;82.22;101638.38;4974534;28;20581;-83
2023/01/24 02:42:51;;;;;;;16.67;8.45;;;;;;;2.53;82.65;101634.91;4988816;28;20437;-83
2023/01/24 02:45:27;;;;;;;16.95;8.45;;;;;;;2.60;81.95;101640.88;4987844;28;20551;-83
2023/01/24 02:47:55;;;;;;;15.05;7.05;;;;;;;2.53;82.24;101626.19;4935800;28;20096;-83
2023/01/24 02:53:28;;;;;;;13.60;7.45;;;;;;;2.59;82.04;101631.25;4989542;28;20045;-84
2023/01/24 02:53:31;;;;;;;16.23;7.72;;;;;;;2.66;81.81;101632.81;4942290;28;20512;-83
2023/01/24 02:58:57;;;;;;;13.93;7.25;;;;;;;2.59;82.30;101623.41;4943550;28;20382;-83
2023/01/24 03:01:24;;;;;;;15.57;7.60;;;;;;;2.59;82.33;101621.63;4969995;28;20053;-84
2023/01/24 03:03:54;;;;;;;13.30;7.28;;;;;;;2.56;83.16;101611.22;4979582;28;20646;-83
2023/01/24 03:06:21;;;;;;;14.18;6.75;;;;;;;2.64;82.14;101626.75;4969832;28;20069;-84
2023/01/24 03:08:48;;;;;;;17.27;8.13;;;;;;;2.52;82.69;101620.09;4992858;28;20125;-83
2023/01/24 03:11:22;;;;;;;14.63;6.88;;;;;;;2.59;82.69;101623.41;4988630;28;20601;-83
2023/01/24 03:36:01;;;;;;;19.27;8.63;;;;;;;2.57;82.49;101636.56;4923665;28;20079;-84
2023/01/24 03:41:19;;;;;;;15.10;7.35;;;;;;;2.60;82.61;101628.63;4926482;28;20585;-84
2023/01/24 03:43:47;;;;;;;17.60;8.38;;;;;;;2.58;82.42;101621.69;4934722;28;20038;-83
2023/01/24 03:46:14;;;;;;;15.80;7.03;;;;;;;2.66;82.20;101613.63;4952390;28;20058;-83
2023/01/24 03:48:51;;;;;;;14.88;6.85;;;;;;;2.61;82.30;101618.97;4951896;28;20041;-83
2023/01/24 03:54:11;;;;;;;15.57;7.40;;;;;;;2.53;82.91;101607.84;4988136;28;20081;-84
2023/01/24 03:56:49;;;;;;;17.58;8.23;;;;;;;2.55;82.93;101604.28;4958383;28;20060;-83
2023/01/24 03:59:18;;;;;;;16.63;7.95;;;;;;;2.61;81.94;101605.88;4984505;28;20116;-84
2023/01/24 04:01:45;;;;;;;15.70;7.35;;;;;;;2.60;82.27;101609.41;4970253;28;20100;-83
2023/01/24 04:07:22;;;;;;;15.35;7.47;;;;;;;2.64;82.27;101611.03;4954425;28;20050;-84
2023/01/24 04:10:05;;;;;;;15.50;8.20;;;;;;;2.56;82.16;101607.75;4938529;28;20425;-84
2023/01/24 04:12:38;;;;;;;16.08;8.10;;;;;;;2.55;82.57;101609.53;4970245;28;20534;-83
2023/01/24 04:15:05;;;;;;;16.88;8.50;;;;;;;2.63;82.10;101611.94;4970983;28;20041;-84
2023/01/24 04:17:33;;;;;;;13.65;7.70;;;;;;;2.61;82.05;101616.34;4955316;28;20872;-84
2023/01/24 04:20:02;;;;;;;13.70;7.47;;;;;;;2.58;82.18;101612.06;4971095;28;20136;-84
2023/01/24 04:22:29;;;;;;;14.55;7.30;;;;;;;2.65;82.36;101612.75;4974604;28;20129;-83
2023/01/24 04:24:59;;;;;;;17.85;7.80;;;;;;;2.64;82.52;101618.03;4974142;28;20056;-83
2023/01/24 04:27:30;;;;;;;17.58;7.85;;;;;;;2.57;81.96;101619.94;4980976;28;20046;-84
2023/01/24 04:30:07;;;;;;;17.50;8.15;;;;;;;2.60;82.24;101619.88;4966974;28;20116;-84
2023/01/24 04:32:36;;;;;;;17.50;7.72;;;;;;;2.62;82.36;101620.72;4968527;28;20042;-84
2023/01/24 04:35:17;;;;;;;17.63;7.85;;;;;;;2.61;82.12;101625.06;5000123;28;20116;-83
2023/01/24 04:38:00;;;;;;;15.27;7.78;;;;;;;2.59;82.32;101619.00;4968187;28;20457;-83
2023/01/24 04:40:59;;;;;;;20.52;8.95;;;;;;;2.54;82.53;101618.25;4964042;28;20450;-84
2023/01/24 04:43:29;;;;;;;16.02;8.27;;;;;;;2.58;82.27;101616.44;4961093;28;20046;-84
2023/01/24 04:45:58;;;;;;;13.95;7.32;;;;;;;2.59;82.37;101619.00;4997569;28;20072;-84
2023/01/24 04:48:35;;;;;;;17.52;8.05;;;;;;;2.58;82.11;101612.06;5015499;28;20633;-83
2023/01/24 04:51:02;;;;;;;18.17;8.48;;;;;;;2.58;82.78;101611.19;4983032;28;20064;-83
2023/01/24 04:53:31;;;;;;;16.10;7.80;;;;;;;2.52;82.80;101614.84;4996862;28;20038;-84
2023/01/24 04:56:01;;;;;;;15.52;7.88;;;;;;;2.47;82.92;101619.34;4998131;28;20046;-84
2023/01/24 04:58:32;;;;;;;17.38;8.57;;;;;;;2.54;82.86;101612.16;4982956;28;20052;-83
2023/01/24 05:01:01;;;;;;;19.17;8.63;;;;;;;2.48;83.23;101615.81;4985111;28;20054;-83
2023/01/24 05:03:34;;;;;;;15.25;8.18;;;;;;;2.56;82.35;101624.34;5000645;28;20042;-83
2023/01/24 05:06:01;;;;;;;15.07;7.45;;;;;;;2.53;82.98;101615.69;4998528;28;20092;-83
2023/01/24 05:08:29;;;;;;;16.20;8.30;;;;;;;2.53;82.97;101620.94;5000123;28;20050;-83
2023/01/24 05:11:01;;;;;;;15.07;7.85;;;;;;;2.63;82.43;101629.44;4982957;28;20046;-84
2023/01/24 05:13:32;;;;;;;14.70;8.15;;;;;;;2.60;82.66;101639.09;5000278;28;20371;-83
2023/01/24 05:15:59;;;;;;;18.88;8.90;;;;;;;2.57;82.81;101623.47;4981635;28;20081;-83
2023/01/24 05:18:26;;;;;;;20.15;9.07;;;;;;;2.62;82.37;101625.97;4980693;28;20050;-83
2023/01/24 05:20:52;;;;;;;18.70;9.57;;;;;;;2.52;82.97;101630.59;4984927;28;20056;-84
2023/01/24 05:23:19;;;;;;;16.48;7.82;;;;;;;2.59;83.09;101633.88;5001154;28;20121;-84
2023/01/24 05:25:48;;;;;;;17.38;8.35;;;;;;;2.58;82.91;101637.41;4955642;28;20045;-84
2023/01/24 05:28:15;;;;;;;16.17;7.90;;;;;;;2.64;82.70;101636.38;4978184;28;20069;-84
2023/01/24 05:30:45;;;;;;;21.95;9.07;;;;;;;2.58;82.96;101627.78;4970473;28;20129;-83
2023/01/24 05:33:19;;;;;;;18.05;8.70;;;;;;;2.59;82.68;101639.97;4962408;28;20048;-83
2023/01/24 05:35:47;;;;;;;15.85;8.05;;;;;;;2.66;82.51;101640.69;4982482;28;20460;-83
2023/01/24 05:38:13;;;;;;;16.65;8.35;;;;;;;2.60;82.48;101635.63;4969631;28;20059;-84
2023/01/24 05:40:42;;;;;;;22.25;10.02;;;;;;;2.61;82.90;101639.97;4971734;28;20547;-83
2023/01/24 05:43:09;;;;;;;16.35;8.85;;;;;;;2.66;82.45;101639.84;5001825;28;20065;-84
2023/01/24 05:45:36;;;;;;;16.92;8.30;;;;;;;2.64;82.75;101642.50;4996097;28;20038;-83
2023/01/24 05:48:04;;;;;;;18.35;9.63;;;;;;;2.63;83.23;101648.66;5001495;28;20046;-83
2023/01/24 05:50:31;;;;;;;23.48;9.52;;;;;;;2.64;83.03;101652.13;4965078;28;20103;-82
2023/01/24 05:53:12;;;;;;;18.33;8.70;;;;;;;2.62;83.02;101660.06;4951844;28;20046;-83
2023/01/24 05:55:39;;;;;;;16.67;8.27;;;;;;;2.58;83.07;101655.78;4999521;28;20621;-83
2023/01/24 05:58:06;;;;;;;20.33;9.65;;;;;;;2.69;83.09;101658.97;4966858;28;20107;-84
2023/01/24 06:01:11;;;;;;;16.95;9.32;;;;;;;2.67;82.64;101665.16;4953409;28;20519;-83
2023/01/24 06:03:42;;;;;;;16.52;8.88;;;;;;;2.70;82.82;101665.09;4966890;28;20133;-83
2023/01/24 06:06:11;;;;;;;17.42;8.43;;;;;;;2.73;82.46;101670.25;4977862;28;20065;-83
2023/01/24 06:08:38;;;;;;;16.23;8.77;;;;;;;2.71;82.39;101666.81;4994934;28;20046;-83
2023/01/24 06:11:12;;;;;;;18.77;8.57;;;;;;;2.73;82.65;101678.13;4977863;28;20076;-84
2023/01/24 06:13:43;;;;;;;19.15;8.85;;;;;;;2.74;82.67;101682.47;4951895;28;20476;-83
2023/01/24 06:16:13;;;;;;;17.55;8.27;;;;;;;2.72;82.31;101685.16;4919176;28;21236;-84
2023/01/24 06:18:40;;;;;;;18.08;8.73;;;;;;;2.74;82.50;101683.31;4907111;28;20054;-82
2023/01/24 06:21:14;;;;;;;14.32;7.60;;;;;;;2.70;82.87;101688.72;4921475;28;20542;-83
2023/01/24 06:23:41;;;;;;;18.40;9.05;;;;;;;2.75;82.31;101678.97;4928573;28;20403;-83
2023/01/24 06:26:11;;;;;;;17.00;8.48;;;;;;;2.72;82.71;101685.16;4914048;28;20051;-84
2023/01/24 06:28:38;;;;;;;18.20;8.93;;;;;;;2.70;82.55;101696.56;4956349;28;20043;-82
2023/01/24 06:31:27;;;;;;;18.98;7.95;;;;;;;2.73;82.69;101697.34;4926387;28;20046;-84
2023/01/24 06:34:03;;;;;;;21.40;10.05;;;;;;;2.73;82.80;101699.97;4927830;28;20043;-81
2023/01/24 06:36:37;;;;;;;20.75;9.50;;;;;;;2.73;82.50;101701.75;4998839;28;20813;-81
2023/01/24 06:39:10;;;;;;;16.98;8.40;;;;;;;2.77;82.68;101708.59;4941296;28;20047;-81
2023/01/24 06:41:37;;;;;;;15.18;8.00;;;;;;;2.79;82.28;101710.28;4956049;28;20667;-81
2023/01/24 06:44:04;;;;;;;18.42;8.55;;;;;;;2.78;82.48;101715.59;4979741;28;20071;-81
2023/01/24 06:46:30;;;;;;;24.05;10.77;;;;;;;2.74;83.23;101714.78;4981839;28;20066;-80
2023/01/24 06:48:57;;;;;;;17.48;9.18;;;;;;;2.77;83.18;101717.38;4979192;28;20453;-81
2023/01/24 06:51:24;;;;;;;23.90;8.68;;;;;;;2.85;82.34;101718.91;5000963;28;20060;-81
2023/01/24 06:53:51;;;;;;;16.83;9.10;;;;;;;2.81;82.16;101728.63;4998593;28;20711;-82
2023/01/24 06:56:17;;;;;;;17.50;8.02;;;;;;;2.83;82.27;101721.59;5027897;28;20760;-81
2023/01/24 06:58:44;;;;;;;19.48;8.98;;;;;;;2.78;82.88;101718.22;4992378;28;20065;-81
2023/01/24 07:01:11;;;;;;;22.42;10.32;;;;;;;2.73;82.93;101730.59;5034170;28;20428;-81
2023/01/24 07:03:37;;;;;;;20.33;10.25;;;;;;;2.79;82.84;101733.91;4994680;28;20732;-81
2023/01/24 07:06:04;;;;;;;22.80;8.88;;;;;;;2.79;82.98;101736.53;5017217;28;20056;-81
2023/01/24 07:08:31;;;;;;;17.65;9.15;;;;;;;2.86;83.04;101737.25;4985510;28;20560;-81
2023/01/24 07:10:58;;;;;;;18.60;8.93;;;;;;;2.88;83.23;101732.81;5000812;28;20046;-81
2023/01/24 07:13:25;;;;;;;19.55;9.40;;;;;;;2.84;82.84;101741.66;4987752;28;20049;-81
2023/01/24 07:15:52;;;;;;;21.52;9.20;;;;;;;2.85;82.68;101729.41;4997648;28;20049;-81
2023/01/24 07:18:19;;;;;;;16.52;9.20;;;;;;;2.88;83.04;101747.72;4971795;28;20625;-81
2023/01/24 07:20:46;;;;;;;20.27;9.25;;;;;;;2.86;82.78;101742.47;4986827;28;20058;-82
2023/01/24 07:23:25;;;;;;;19.70;9.85;;;;;;;2.69;82.98;101750.78;4991339;28;20474;-81
2023/01/24 07:25:52;;;;;;;15.55;8.38;;;;;;;2.84;82.41;101744.28;4947671;28;20054;-81
2023/01/24 07:28:19;;;;;;;20.08;9.57;;;;;;;2.75;83.18;101744.53;4971142;28;20046;-81
2023/01/24 07:30:46;;;;;;;18.98;9.85;;;;;;;2.80;82.79;101733.03;4972817;28;20052;-82
2023/01/24 07:33:14;;;;;;;20.30;9.57;;;;;;;2.73;82.95;101733.22;4968264;28;20054;-81
2023/01/24 07:35:42;;;;;;;18.23;9.13;;;;;;;2.71;83.14;101740.25;4974728;28;20053;-81
2023/01/24 07:38:09;;;;;;;18.50;8.70;;;;;;;2.76;83.16;101746.25;4995770;28;20058;-81
2023/01/24 07:40:36;;;;;;;23.23;9.43;;;;;;;2.71;82.83;101738.47;4985865;28;20037;-81
2023/01/24 07:43:04;;;;;;;18.13;8.98;;;;;;;2.70;82.96;101734.16;5002553;28;20136;-81
2023/01/24 07:45:31;;;;;;;17.45;8.45;;;;;;;2.77;82.86;101738.34;4981126;28;20045;-81
2023/01/24 07:47:59;;;;;;;18.50;9.25;;;;;;;2.74;82.79;101741.03;4983984;28;20050;-81
2023/01/24 07:50:26;;;;;;;20.77;9.20;;;;;;;2.79;83.20;101747.00;4986427;28;20048;-81
2023/01/24 07:52:53;;;;;;;18.20;9.98;;;;;;;2.71;83.21;101750.75;4967220;28;20041;-81
2023/01/24 07:55:21;;;;;;;18.20;8.98;;;;;;;2.73;83.43;101748.97;4995854;28;20460;-81
2023/01/24 07:57:48;;;;;;;19.33;9.13;;;;;;;2.65;83.29;101745.66;4989168;28;20089;-81
2023/01/24 08:00:16;;;;;;;17.90;9.05;;;;;;;2.63;83.19;101732.56;4985339;28;20099;-81
2023/01/24 08:02:43;;;;;;;18.48;8.50;;;;;;;2.72;83.18;101742.84;4998911;28;20058;-81
2023/01/24 08:05:10;;;;;;;17.30;9.07;;;;;;;2.67;83.55;101754.34;4970621;28;20489;-81
2023/01/24 08:07:37;;;;;;;20.45;8.45;;;;;;;2.56;83.83;101754.59;4966129;28;20109;-81
2023/01/24 08:10:05;;;;;;;20.02;9.60;;;;;;;2.64;83.93;101763.13;4991165;28;20460;-81
2023/01/24 08:12:31;;;;;;;22.27;10.10;;;;;;;2.69;83.03;101766.50;4982395;28;20533;-81
2023/01/24 08:14:58;;;;;;;20.23;8.77;;;;;;;2.63;83.38;101761.44;4988886;28;20045;-81
2023/01/24 08:17:25;;;;;;;21.90;9.13;;;;;;;2.59;83.95;101776.38;4984604;28;20413;-81
2023/01/24 08:19:51;;;;;;;18.58;8.55;;;;;;;2.59;83.61;101775.50;4998380;28;20045;-81
2023/01/24 08:22:24;;;;;;;18.35;8.82;;;;;;;2.59;83.95;101776.38;4980685;28;20050;-81
2023/01/24 08:24:51;;;;;;;20.10;8.95;;;;;;;2.62;83.87;101785.94;4995628;28;20049;-81
2023/01/24 08:27:17;;;;;;;18.85;8.73;;;;;;;2.69;83.61;101773.53;4982570;28;20551;-81
2023/01/24 08:29:44;;;;;;;21.27;10.00;;;;;;;2.69;83.62;101782.25;4981371;28;20120;-81
2023/01/24 08:32:11;;;;;;;25.13;10.70;;;;;;;2.65;84.16;101780.63;4971053;28;20048;-81
2023/01/24 08:34:38;;;;;;;21.45;8.25;;;;;;;2.73;83.88;101781.28;4985548;28;20041;-81
2023/01/24 08:37:04;;;;;;;18.45;9.02;;;;;;;2.77;83.46;101800.44;4965847;28;20482;-81
2023/01/24 08:39:31;;;;;;;19.65;9.15;;;;;;;2.74;83.60;101790.88;4998978;28;20053;-81
2023/01/24 08:41:58;;;;;;;18.15;9.73;;;;;;;2.81;83.80;101796.84;4979990;28;20452;-82
2023/01/24 08:44:24;;;;;;;20.67;9.52;;;;;;;2.71;83.58;101804.06;4985923;28;20050;-81
2023/01/24 08:46:51;;;;;;;20.50;9.02;;;;;;;2.77;83.20;101805.66;4997634;28;20048;-81
2023/01/24 08:49:18;;;;;;;19.63;9.50;;;;;;;2.74;83.48;101805.75;4989736;28;20446;-81
2023/01/24 08:51:46;;;;;;;18.98;8.70;;;;;;;2.76;83.28;101807.44;5002490;28;20046;-81
2023/01/24 08:54:14;;;;;;;19.83;9.55;;;;;;;2.71;83.59;101818.94;4997063;28;20175;-81
2023/01/24 08:56:41;;;;;;;22.13;9.98;;;;;;;2.74;83.97;101821.50;4979255;28;20053;-81
2023/01/24 08:59:08;;;;;;;24.15;11.02;;;;;;;2.73;83.53;101818.00;4996130;28;20125;-81
2023/01/24 09:01:34;;;;;;;23.73;9.73;;;;;;;2.64;84.49;101817.38;5002805;28;20046;-81
2023/01/24 09:04:02;;;;;;;22.25;10.30;;;;;;;2.67;84.57;101819.91;4986961;28;20046;-81
2023/01/24 09:06:29;;;;;;;22.80;9.63;;;;;;;2.66;84.15;101821.69;4979466;28;20050;-82
2023/01/24 09:08:56;;;;;;;15.50;8.82;;;;;;;2.69;84.44;101831.22;4994436;28;20046;-81
2023/01/24 09:11:23;;;;;;;20.73;9.52;;;;;;;2.76;84.29;101836.28;4970479;28;20111;-80
2023/01/24 09:13:49;;;;;;;19.58;9.07;;;;;;;2.73;84.59;101836.38;5001147;28;20064;-81
2023/01/24 09:16:16;;;;;;;19.60;9.13;;;;;;;2.70;84.96;101846.94;4966788;28;20053;-80
2023/01/24 09:18:43;;;;;;;18.55;8.32;;;;;;;2.66;84.38;101832.16;4976181;28;20050;-80
2023/01/24 09:21:10;;;;;;;20.55;9.15;;;;;;;2.74;84.57;101837.22;4971149;28;20125;-81
2023/01/24 09:23:37;;;;;;;18.27;9.25;;;;;;;2.78;84.45;101844.16;4982252;28;20049;-81
2023/01/24 09:26:04;;;;;;;19.48;9.13;;;;;;;2.82;84.70;101838.78;4995308;28;20053;-81
2023/01/24 09:28:31;;;;;;;19.75;10.13;;;;;;;2.87;84.39;101843.03;4964477;28;20046;-81
2023/01/24 09:30:57;;;;;;;20.90;10.40;;;;;;;2.78;84.60;101847.63;4988479;28;20120;-81
2023/01/24 09:33:24;;;;;;;13.90;7.78;;;;;;;2.79;84.18;101843.22;4985166;28;20052;-80
2023/01/24 09:35:58;;;;;;;22.10;8.73;;;;;;;2.82;83.92;101848.41;4977626;28;20244;-81
2023/01/24 09:38:27;;;;;;;21.35;9.43;;;;;;;2.81;84.19;101846.69;4982214;28;20057;-80
2023/01/24 09:41:06;;;;;;;18.77;7.88;;;;;;;2.77;83.68;101842.41;4969635;28;20124;-81
2023/01/24 09:43:40;;;;;;;17.27;8.30;;;;;;;2.75;84.44;101847.69;4954365;28;20041;-81
2023/01/24 09:46:32;;;;;;;19.05;9.40;;;;;;;2.81;84.38;101852.78;4958938;28;20050;-81
2023/01/24 09:49:14;;;;;;;17.85;8.50;;;;;;;2.74;84.40;101845.97;4980728;28;20046;-81
2023/01/24 09:51:45;;;;;;;19.00;9.05;;;;;;;2.80;84.47;101845.84;4984350;28;20409;-80
2023/01/24 09:54:36;;;;;;;15.25;7.85;;;;;;;2.79;84.24;101843.22;4998341;28;20078;-81
2023/01/24 09:57:17;;;;;;;14.90;8.30;;;;;;;2.78;84.18;101845.00;4935960;28;20092;-81
2023/01/24 09:59:49;;;;;;;15.55;7.93;;;;;;;2.79;84.31;101836.22;4976674;28;20030;-80
2023/01/24 10:02:17;;;;;;;19.75;8.65;;;;;;;2.87;84.19;101845.66;4998855;28;20051;-81
2023/01/24 10:04:45;;;;;;;16.83;8.30;;;;;;;2.85;84.01;101845.72;5018226;28;20050;-82
2023/01/24 10:07:33;;;;;;;17.73;8.25;;;;;;;2.91;83.36;101849.97;5016419;28;20042;-80
2023/01/24 10:10:00;;;;;;;17.83;8.98;;;;;;;2.87;84.13;101846.53;4955163;28;20061;-81
2023/01/24 10:12:33;;;;;;;18.65;8.93;;;;;;;2.77;84.67;101848.53;5001226;28;20057;-81
2023/01/24 10:15:41;;;;;;;17.38;7.45;;;;;;;2.78;84.27;101837.13;4997157;28;20497;-80
2023/01/24 10:18:20;;;;;;;17.17;8.85;;;;;;;2.83;84.33;101837.03;4919787;28;20488;-81
2023/01/24 10:21:09;;;;;;;17.88;8.57;;;;;;;2.88;84.29;101836.91;4983677;28;20042;-81
2023/01/24 10:23:39;;;;;;;18.00;9.88;;;;;;;2.93;84.38;101828.03;4953719;28;20045;-80
2023/01/24 10:26:27;;;;;;;19.88;9.35;;;;;;;2.97;84.41;101834.03;4967081;28;20048;-81
2023/01/24 10:29:16;;;;;;;18.45;8.68;;;;;;;2.90;84.37;101828.09;4934016;28;20486;-81
2023/01/24 10:32:00;;;;;;;15.55;8.55;;;;;;;2.88;84.37;101840.41;4949004;28;20041;-81
2023/01/24 10:34:42;;;;;;;17.60;8.13;;;;;;;2.89;83.89;101836.88;4953664;28;20038;-81
2023/01/24 10:37:09;;;;;;;13.23;7.28;;;;;;;2.91;83.91;101832.44;4982138;28;20038;-81
2023/01/24 10:39:37;;;;;;;18.90;8.75;;;;;;;2.91;84.04;101840.31;5002253;28;20662;-81
2023/01/24 10:42:21;;;;;;;18.10;8.65;;;;;;;2.92;84.65;101835.91;4999741;28;20037;-80
2023/01/24 10:44:48;;;;;;;19.80;8.13;;;;;;;2.89;84.89;101830.75;4970127;28;20481;-81
2023/01/24 10:47:48;;;;;;;15.50;7.93;;;;;;;2.84;84.35;101838.75;4969863;28;20048;-81
2023/01/24 10:50:16;;;;;;;16.05;8.05;;;;;;;2.88;84.09;101814.16;4922905;28;20046;-81
2023/01/24 10:52:46;;;;;;;16.52;7.70;;;;;;;2.85;84.64;101815.97;4989522;28;20061;-81
2023/01/24 10:55:24;;;;;;;17.45;8.30;;;;;;;2.86;84.56;101821.19;5032559;28;20136;-80
2023/01/24 10:57:53;;;;;;;15.60;7.88;;;;;;;2.91;84.54;101819.31;4966176;28;20057;-81
2023/01/24 11:00:35;;;;;;;16.83;7.57;;;;;;;2.87;83.63;101822.91;4959397;28;20048;-81
2023/01/24 11:03:04;;;;;;;14.35;8.00;;;;;;;2.90;84.18;101807.13;4956519;28;20049;-81
2023/01/24 11:05:39;;;;;;;19.50;8.25;;;;;;;2.89;84.54;101808.00;4994298;28;20399;-81
2023/01/24 11:08:16;;;;;;;17.80;8.18;;;;;;;2.94;84.31;101805.25;4968773;28;20050;-81
2023/01/24 11:10:43;;;;;;;16.05;8.32;;;;;;;3.02;84.43;101804.16;4970362;28;20769;-81
2023/01/24 11:13:31;;;;;;;16.60;8.75;;;;;;;2.93;84.34;101801.78;4997086;28;20050;-82
2023/01/24 11:16:06;;;;;;;14.07;8.00;;;;;;;2.99;84.29;101809.50;4974107;28;20401;-81
2023/01/24 11:18:33;;;;;;;15.90;8.05;;;;;;;2.88;83.94;101797.56;4995771;28;20111;-81
2023/01/24 11:21:13;;;;;;;18.25;7.90;;;;;;;2.89;83.77;101802.75;4985850;28;20378;-81
2023/01/24 11:23:40;;;;;;;16.92;8.60;;;;;;;2.97;83.62;101797.31;4970936;28;20050;-81
2023/01/24 11:26:29;;;;;;;18.75;8.90;;;;;;;2.91;84.29;101813.22;4993380;28;20053;-81
2023/01/24 11:28:58;;;;;;;14.23;7.68;;;;;;;2.99;83.49;101806.00;4973357;28;20045;-81
2023/01/24 11:31:50;;;;;;;17.02;8.75;;;;;;;2.98;84.42;101817.41;4968713;28;20096;-81
2023/01/24 11:34:44;;;;;;;15.27;7.22;;;;;;;3.03;83.61;101820.78;4989484;28;20440;-81
2023/01/24 11:37:18;;;;;;;16.40;7.60;;;;;;;3.00;83.92;101808.59;4948096;28;20045;-81
2023/01/24 11:39:57;;;;;;;28.50;9.38;;;;;;;2.98;83.93;101801.69;4983548;28;20038;-81
2023/01/24 11:42:35;;;;;;;18.10;9.30;;;;;;;2.93;83.71;101798.31;5002508;28;20050;-81
2023/01/24 11:45:23;;;;;;;15.52;7.28;;;;;;;3.05;82.75;101811.09;5001839;28;20045;-80
2023/01/24 11:48:06;;;;;;;15.68;7.47;;;;;;;2.96;83.10;101798.22;4967767;28;20038;-80
2023/01/24 11:50:42;;;;;;;20.48;9.10;;;;;;;2.96;83.53;101816.59;4984795;28;20033;-81
2023/01/24 11:53:18;;;;;;;18.00;8.27;;;;;;;3.00;83.24;101808.59;4987720;28;20056;-81
2023/01/24 11:55:44;;;;;;;17.80;9.15;;;;;;;2.97;83.41;101803.41;4981478;28;20050;-81
2023/01/24 11:58:24;;;;;;;18.88;8.77;;;;;;;3.00;84.04;101805.09;4999230;28;20046;-81
2023/01/24 12:00:51;;;;;;;20.08;8.38;;;;;;;3.07;83.99;101808.44;4965420;28;20045;-81
2023/01/24 12:03:45;;;;;;;17.05;8.63;;;;;;;3.04;83.91;101794.50;5002502;28;20080;-81
2023/01/24 12:06:30;;;;;;;18.85;8.55;;;;;;;3.06;83.50;101790.97;4950796;28;20046;-81
2023/01/24 12:09:02;;;;;;;19.73;9.07;;;;;;;3.08;83.47;101795.28;4956763;28;20042;-81
2023/01/24 12:11:50;;;;;;;16.17;7.50;;;;;;;3.15;83.00;101801.22;4988347;28;20656;-81
2023/01/24 12:14:39;;;;;;;19.30;8.27;;;;;;;3.06;82.72;101789.22;4951077;28;20038;-81
2023/01/24 12:17:30;;;;;;;18.52;9.15;;;;;;;2.99;83.45;101793.75;4984160;28;20046;-81
2023/01/24 12:20:23;;;;;;;16.42;8.15;;;;;;;3.06;82.87;101788.34;4937026;28;20050;-81